sensor_id;sensor_type;location;lat;lon;timestamp;P1;durP1;ratioP1;P2;durP2;ratioP2
55364;SDS011;41245;45.384;20.390;2022-09-09T00:09:28;13.95;;;8.32;;
55364;SDS011;41245;45.384;20.390;2022-09-09T00:14:54;14.63;;;8.07;;
55364;SDS011;41245;45.384;20.390;2022-09-09T00:20:19;14.55;;;8.50;;
55364;SDS011;41245;45.384;20.390;2022-09-09T00:22:57;16.30;;;9.70;;
55364;SDS011;41245;45.384;20.390;2022-09-09T00:25:37;25.05;;;10.02;;
55364;SDS011;41245;45.384;20.390;2022-09-09T00:28:23;14.52;;;9.00;;
55364;SDS011;41245;45.384;20.390;2022-09-09T00:30:52;11.55;;;8.85;;
55364;SDS011;41245;45.384;20.390;2022-09-09T00:33:19;11.50;;;8.77;;
55364;SDS011;41245;45.384;20.390;2022-09-09T00:35:49;14.40;;;9.88;;
55364;SDS011;41245;45.384;20.390;2022-09-09T00:39:19;14.10;;;9.05;;
55364;SDS011;41245;45.384;20.390;2022-09-09T00:43:46;14.63;;;9.00;;
55364;SDS011;41245;45.384;20.390;2022-09-09T00:46:44;14.20;;;9.32;;
55364;SDS011;41245;45.384;20.390;2022-09-09T00:57:25;15.45;;;9.85;;
55364;SDS011;41245;45.384;20.390;2022-09-09T01:02:28;21.08;;;9.60;;
55364;SDS011;41245;45.384;20.390;2022-09-09T01:05:00;15.55;;;10.00;;
55364;SDS011;41245;45.384;20.390;2022-09-09T01:10:03;16.45;;;10.63;;
55364;SDS011;41245;45.384;20.390;2022-09-09T01:12:41;21.23;;;10.68;;
55364;SDS011;41245;45.384;20.390;2022-09-09T01:20:14;21.13;;;10.57;;
55364;SDS011;41245;45.384;20.390;2022-09-09T01:28:29;19.90;;;11.07;;
55364;SDS011;41245;45.384;20.390;2022-09-09T01:30:56;14.60;;;9.90;;
55364;SDS011;41245;45.384;20.390;2022-09-09T01:33:23;14.27;;;10.32;;
55364;SDS011;41245;45.384;20.390;2022-09-09T01:38:31;17.23;;;10.68;;
55364;SDS011;41245;45.384;20.390;2022-09-09T01:40:59;16.88;;;10.93;;
55364;SDS011;41245;45.384;20.390;2022-09-09T01:43:25;22.17;;;11.93;;
55364;SDS011;41245;45.384;20.390;2022-09-09T01:45:55;24.63;;;10.02;;
55364;SDS011;41245;45.384;20.390;2022-09-09T01:48:23;17.58;;;10.18;;
55364;SDS011;41245;45.384;20.390;2022-09-09T01:50:50;20.33;;;11.18;;
55364;SDS011;41245;45.384;20.390;2022-09-09T01:53:17;17.77;;;11.35;;
55364;SDS011;41245;45.384;20.390;2022-09-09T02:01:17;16.42;;;10.25;;
55364;SDS011;41245;45.384;20.390;2022-09-09T02:03:53;21.38;;;11.32;;
55364;SDS011;41245;45.384;20.390;2022-09-09T02:08:49;18.30;;;10.75;;
55364;SDS011;41245;45.384;20.390;2022-09-09T02:11:24;16.17;;;10.82;;
55364;SDS011;41245;45.384;20.390;2022-09-09T02:13:53;17.38;;;10.82;;
55364;SDS011;41245;45.384;20.390;2022-09-09T02:17:06;14.73;;;11.55;;
55364;SDS011;41245;45.384;20.390;2022-09-09T02:21:49;25.90;;;11.27;;
55364;SDS011;41245;45.384;20.390;2022-09-09T02:24:16;18.15;;;12.18;;
55364;SDS011;41245;45.384;20.390;2022-09-09T02:26:42;16.73;;;11.32;;
55364;SDS011;41245;45.384;20.390;2022-09-09T02:29:13;22.92;;;11.45;;
55364;SDS011;41245;45.384;20.390;2022-09-09T02:31:43;23.70;;;13.35;;
55364;SDS011;41245;45.384;20.390;2022-09-09T02:34:10;17.98;;;12.70;;
55364;SDS011;41245;45.384;20.390;2022-09-09T02:36:38;18.58;;;12.35;;
55364;SDS011;41245;45.384;20.390;2022-09-09T02:39:08;19.05;;;12.70;;
55364;SDS011;41245;45.384;20.390;2022-09-09T02:41:35;19.92;;;12.02;;
55364;SDS011;41245;45.384;20.390;2022-09-09T02:44:14;22.20;;;12.50;;
55364;SDS011;41245;45.384;20.390;2022-09-09T02:52:33;20.65;;;12.98;;
55364;SDS011;41245;45.384;20.390;2022-09-09T02:57:59;19.08;;;12.65;;
55364;SDS011;41245;45.384;20.390;2022-09-09T03:00:27;16.52;;;12.27;;
55364;SDS011;41245;45.384;20.390;2022-09-09T03:02:54;21.05;;;11.63;;
55364;SDS011;41245;45.384;20.390;2022-09-09T03:05:20;18.88;;;12.38;;
55364;SDS011;41245;45.384;20.390;2022-09-09T03:07:46;22.00;;;13.30;;
55364;SDS011;41245;45.384;20.390;2022-09-09T03:10:12;21.88;;;13.23;;
55364;SDS011;41245;45.384;20.390;2022-09-09T03:12:38;17.88;;;12.65;;
55364;SDS011;41245;45.384;20.390;2022-09-09T03:15:05;19.25;;;12.07;;
55364;SDS011;41245;45.384;20.390;2022-09-09T03:17:31;22.92;;;12.80;;
55364;SDS011;41245;45.384;20.390;2022-09-09T03:19:56;20.23;;;11.77;;
55364;SDS011;41245;45.384;20.390;2022-09-09T03:22:23;21.58;;;12.93;;
55364;SDS011;41245;45.384;20.390;2022-09-09T03:24:50;24.38;;;11.57;;
55364;SDS011;41245;45.384;20.390;2022-09-09T03:27:16;21.17;;;12.07;;
55364;SDS011;41245;45.384;20.390;2022-09-09T03:29:44;13.68;;;12.25;;
55364;SDS011;41245;45.384;20.390;2022-09-09T03:32:11;16.58;;;12.70;;
55364;SDS011;41245;45.384;20.390;2022-09-09T03:34:37;23.60;;;14.05;;
55364;SDS011;41245;45.384;20.390;2022-09-09T03:37:05;17.58;;;12.27;;
55364;SDS011;41245;45.384;20.390;2022-09-09T03:39:31;19.50;;;12.27;;
55364;SDS011;41245;45.384;20.390;2022-09-09T03:41:57;17.55;;;11.85;;
55364;SDS011;41245;45.384;20.390;2022-09-09T03:44:23;17.77;;;12.07;;
55364;SDS011;41245;45.384;20.390;2022-09-09T03:46:48;17.08;;;11.48;;
55364;SDS011;41245;45.384;20.390;2022-09-09T03:49:14;16.73;;;11.73;;
55364;SDS011;41245;45.384;20.390;2022-09-09T03:51:40;18.48;;;10.20;;
55364;SDS011;41245;45.384;20.390;2022-09-09T03:54:06;19.33;;;10.40;;
55364;SDS011;41245;45.384;20.390;2022-09-09T03:56:35;19.38;;;9.82;;
55364;SDS011;41245;45.384;20.390;2022-09-09T03:59:01;15.75;;;10.82;;
55364;SDS011;41245;45.384;20.390;2022-09-09T04:01:28;18.58;;;9.63;;
55364;SDS011;41245;45.384;20.390;2022-09-09T04:03:54;14.02;;;9.85;;
55364;SDS011;41245;45.384;20.390;2022-09-09T04:06:23;20.50;;;9.93;;
55364;SDS011;41245;45.384;20.390;2022-09-09T04:08:49;14.88;;;9.18;;
55364;SDS011;41245;45.384;20.390;2022-09-09T04:11:15;15.90;;;8.85;;
55364;SDS011;41245;45.384;20.390;2022-09-09T04:13:41;17.23;;;8.00;;
55364;SDS011;41245;45.384;20.390;2022-09-09T04:16:08;15.38;;;7.95;;
55364;SDS011;41245;45.384;20.390;2022-09-09T04:18:35;15.63;;;7.70;;
55364;SDS011;41245;45.384;20.390;2022-09-09T04:21:01;17.38;;;8.35;;
55364;SDS011;41245;45.384;20.390;2022-09-09T04:23:28;16.65;;;8.63;;
55364;SDS011;41245;45.384;20.390;2022-09-09T04:25:54;14.15;;;7.47;;
55364;SDS011;41245;45.384;20.390;2022-09-09T04:28:22;15.15;;;8.70;;
55364;SDS011;41245;45.384;20.390;2022-09-09T04:30:49;12.43;;;7.28;;
55364;SDS011;41245;45.384;20.390;2022-09-09T04:33:15;15.57;;;7.75;;
55364;SDS011;41245;45.384;20.390;2022-09-09T04:35:45;9.73;;;6.50;;
55364;SDS011;41245;45.384;20.390;2022-09-09T04:38:13;15.07;;;6.53;;
55364;SDS011;41245;45.384;20.390;2022-09-09T04:40:41;14.70;;;7.30;;
55364;SDS011;41245;45.384;20.390;2022-09-09T04:43:14;11.05;;;7.30;;
55364;SDS011;41245;45.384;20.390;2022-09-09T04:45:40;15.93;;;6.88;;
55364;SDS011;41245;45.384;20.390;2022-09-09T04:48:07;16.30;;;7.68;;
55364;SDS011;41245;45.384;20.390;2022-09-09T04:50:33;13.90;;;8.02;;
55364;SDS011;41245;45.384;20.390;2022-09-09T04:53:04;11.32;;;7.95;;
55364;SDS011;41245;45.384;20.390;2022-09-09T04:55:30;11.45;;;8.57;;
55364;SDS011;41245;45.384;20.390;2022-09-09T04:57:57;18.63;;;9.82;;
55364;SDS011;41245;45.384;20.390;2022-09-09T05:00:23;13.95;;;8.60;;
55364;SDS011;41245;45.384;20.390;2022-09-09T05:02:50;17.73;;;9.75;;
55364;SDS011;41245;45.384;20.390;2022-09-09T05:05:16;24.10;;;9.70;;
55364;SDS011;41245;45.384;20.390;2022-09-09T05:07:41;19.17;;;10.07;;
55364;SDS011;41245;45.384;20.390;2022-09-09T05:10:08;19.08;;;9.93;;
55364;SDS011;41245;45.384;20.390;2022-09-09T05:12:35;19.67;;;9.00;;
55364;SDS011;41245;45.384;20.390;2022-09-09T05:15:00;15.85;;;8.82;;
55364;SDS011;41245;45.384;20.390;2022-09-09T05:17:26;15.80;;;9.43;;
55364;SDS011;41245;45.384;20.390;2022-09-09T05:19:52;13.32;;;8.50;;
55364;SDS011;41245;45.384;20.390;2022-09-09T05:22:21;17.00;;;8.65;;
55364;SDS011;41245;45.384;20.390;2022-09-09T05:24:48;16.60;;;7.75;;
55364;SDS011;41245;45.384;20.390;2022-09-09T05:27:16;20.35;;;8.75;;
55364;SDS011;41245;45.384;20.390;2022-09-09T05:29:44;16.00;;;9.25;;
55364;SDS011;41245;45.384;20.390;2022-09-09T05:32:10;22.30;;;10.05;;
55364;SDS011;41245;45.384;20.390;2022-09-09T05:34:36;15.90;;;8.50;;
55364;SDS011;41245;45.384;20.390;2022-09-09T05:37:05;10.63;;;7.28;;
55364;SDS011;41245;45.384;20.390;2022-09-09T05:39:31;19.92;;;9.70;;
55364;SDS011;41245;45.384;20.390;2022-09-09T05:41:57;17.63;;;8.63;;
55364;SDS011;41245;45.384;20.390;2022-09-09T05:44:23;18.80;;;8.40;;
55364;SDS011;41245;45.384;20.390;2022-09-09T05:46:52;15.38;;;9.15;;
55364;SDS011;41245;45.384;20.390;2022-09-09T05:49:19;18.83;;;8.85;;
55364;SDS011;41245;45.384;20.390;2022-09-09T05:51:45;14.55;;;9.07;;
55364;SDS011;41245;45.384;20.390;2022-09-09T05:54:11;16.77;;;7.78;;
55364;SDS011;41245;45.384;20.390;2022-09-09T05:56:40;14.85;;;7.63;;
55364;SDS011;41245;45.384;20.390;2022-09-09T05:59:05;16.80;;;7.93;;
55364;SDS011;41245;45.384;20.390;2022-09-09T06:01:32;11.05;;;7.43;;
55364;SDS011;41245;45.384;20.390;2022-09-09T06:04:00;15.73;;;8.23;;
55364;SDS011;41245;45.384;20.390;2022-09-09T06:06:27;14.77;;;9.07;;
55364;SDS011;41245;45.384;20.390;2022-09-09T06:08:56;21.73;;;8.15;;
55364;SDS011;41245;45.384;20.390;2022-09-09T06:13:56;11.05;;;7.55;;
55364;SDS011;41245;45.384;20.390;2022-09-09T06:16:23;12.48;;;7.15;;
55364;SDS011;41245;45.384;20.390;2022-09-09T06:18:50;13.20;;;7.05;;
55364;SDS011;41245;45.384;20.390;2022-09-09T06:21:19;10.98;;;7.55;;
55364;SDS011;41245;45.384;20.390;2022-09-09T06:23:45;18.65;;;8.48;;
55364;SDS011;41245;45.384;20.390;2022-09-09T06:28:37;13.18;;;6.75;;
55364;SDS011;41245;45.384;20.390;2022-09-09T06:31:04;12.35;;;7.07;;
55364;SDS011;41245;45.384;20.390;2022-09-09T06:33:35;14.73;;;7.55;;
55364;SDS011;41245;45.384;20.390;2022-09-09T06:36:06;13.52;;;7.10;;
55364;SDS011;41245;45.384;20.390;2022-09-09T06:38:35;14.20;;;7.75;;
55364;SDS011;41245;45.384;20.390;2022-09-09T06:41:01;15.63;;;6.93;;
55364;SDS011;41245;45.384;20.390;2022-09-09T06:43:27;17.67;;;7.88;;
55364;SDS011;41245;45.384;20.390;2022-09-09T06:46:02;14.88;;;7.22;;
55364;SDS011;41245;45.384;20.390;2022-09-09T06:48:33;13.07;;;6.47;;
55364;SDS011;41245;45.384;20.390;2022-09-09T06:51:03;21.38;;;7.57;;
55364;SDS011;41245;45.384;20.390;2022-09-09T06:53:31;15.27;;;7.55;;
55364;SDS011;41245;45.384;20.390;2022-09-09T06:56:42;11.77;;;6.95;;
55364;SDS011;41245;45.384;20.390;2022-09-09T06:58:51;13.18;;;7.82;;
55364;SDS011;41245;45.384;20.390;2022-09-09T07:01:21;10.68;;;7.40;;
55364;SDS011;41245;45.384;20.390;2022-09-09T07:03:49;22.60;;;7.35;;
55364;SDS011;41245;45.384;20.390;2022-09-09T07:06:18;12.32;;;8.25;;
55364;SDS011;41245;45.384;20.390;2022-09-09T07:08:52;15.07;;;6.75;;
55364;SDS011;41245;45.384;20.390;2022-09-09T07:11:20;14.57;;;7.93;;
55364;SDS011;41245;45.384;20.390;2022-09-09T07:13:47;11.50;;;7.05;;
55364;SDS011;41245;45.384;20.390;2022-09-09T07:16:14;11.60;;;7.90;;
55364;SDS011;41245;45.384;20.390;2022-09-09T07:18:41;10.55;;;7.72;;
55364;SDS011;41245;45.384;20.390;2022-09-09T07:21:09;10.27;;;6.72;;
55364;SDS011;41245;45.384;20.390;2022-09-09T07:23:37;11.38;;;6.85;;
55364;SDS011;41245;45.384;20.390;2022-09-09T07:26:07;14.15;;;7.78;;
55364;SDS011;41245;45.384;20.390;2022-09-09T07:28:38;11.18;;;7.13;;
55364;SDS011;41245;45.384;20.390;2022-09-09T07:31:05;14.15;;;7.15;;
55364;SDS011;41245;45.384;20.390;2022-09-09T07:33:33;11.02;;;7.53;;
55364;SDS011;41245;45.384;20.390;2022-09-09T07:36:04;11.75;;;7.65;;
55364;SDS011;41245;45.384;20.390;2022-09-09T07:38:54;8.77;;;7.18;;
55364;SDS011;41245;45.384;20.390;2022-09-09T07:41:26;13.63;;;7.03;;
55364;SDS011;41245;45.384;20.390;2022-09-09T07:43:54;11.40;;;6.50;;
55364;SDS011;41245;45.384;20.390;2022-09-09T07:46:20;15.20;;;8.00;;
55364;SDS011;41245;45.384;20.390;2022-09-09T07:48:48;7.72;;;6.38;;
55364;SDS011;41245;45.384;20.390;2022-09-09T07:51:16;9.98;;;6.22;;
55364;SDS011;41245;45.384;20.390;2022-09-09T07:53:44;16.73;;;6.97;;
55364;SDS011;41245;45.384;20.390;2022-09-09T07:56:12;15.32;;;6.38;;
55364;SDS011;41245;45.384;20.390;2022-09-09T07:58:42;9.20;;;6.65;;
55364;SDS011;41245;45.384;20.390;2022-09-09T08:01:17;10.90;;;6.75;;
55364;SDS011;41245;45.384;20.390;2022-09-09T08:03:45;9.77;;;6.68;;
55364;SDS011;41245;45.384;20.390;2022-09-09T08:06:12;13.68;;;6.97;;
55364;SDS011;41245;45.384;20.390;2022-09-09T08:08:39;15.13;;;7.40;;
55364;SDS011;41245;45.384;20.390;2022-09-09T08:11:14;9.93;;;6.72;;
55364;SDS011;41245;45.384;20.390;2022-09-09T08:13:40;9.98;;;7.07;;
55364;SDS011;41245;45.384;20.390;2022-09-09T08:16:09;8.85;;;6.05;;
55364;SDS011;41245;45.384;20.390;2022-09-09T08:18:37;10.90;;;6.13;;
55364;SDS011;41245;45.384;20.390;2022-09-09T08:23:36;9.63;;;6.65;;
55364;SDS011;41245;45.384;20.390;2022-09-09T08:26:13;14.00;;;7.28;;
55364;SDS011;41245;45.384;20.390;2022-09-09T08:28:40;16.02;;;6.60;;
55364;SDS011;41245;45.384;20.390;2022-09-09T08:31:07;10.63;;;6.13;;
55364;SDS011;41245;45.384;20.390;2022-09-09T08:33:38;14.35;;;8.20;;
55364;SDS011;41245;45.384;20.390;2022-09-09T08:36:06;8.85;;;6.05;;
55364;SDS011;41245;45.384;20.390;2022-09-09T08:38:35;13.52;;;7.82;;
55364;SDS011;41245;45.384;20.390;2022-09-09T08:47:07;11.70;;;6.05;;
55364;SDS011;41245;45.384;20.390;2022-09-09T08:52:28;15.63;;;6.18;;
55364;SDS011;41245;45.384;20.390;2022-09-09T08:55:05;11.73;;;6.45;;
55364;SDS011;41245;45.384;20.390;2022-09-09T08:57:47;13.00;;;5.78;;
55364;SDS011;41245;45.384;20.390;2022-09-09T09:00:19;9.57;;;6.13;;
55364;SDS011;41245;45.384;20.390;2022-09-09T09:08:04;10.18;;;5.70;;
55364;SDS011;41245;45.384;20.390;2022-09-09T09:10:50;11.63;;;5.78;;
55364;SDS011;41245;45.384;20.390;2022-09-09T09:13:20;9.35;;;6.15;;
55364;SDS011;41245;45.384;20.390;2022-09-09T09:19:01;11.02;;;5.88;;
55364;SDS011;41245;45.384;20.390;2022-09-09T09:27:12;15.30;;;5.85;;
55364;SDS011;41245;45.384;20.390;2022-09-09T09:29:40;9.25;;;5.85;;
55364;SDS011;41245;45.384;20.390;2022-09-09T09:32:09;7.43;;;4.78;;
55364;SDS011;41245;45.384;20.390;2022-09-09T09:34:38;12.68;;;5.65;;
55364;SDS011;41245;45.384;20.390;2022-09-09T09:37:17;11.88;;;4.80;;
55364;SDS011;41245;45.384;20.390;2022-09-09T09:39:51;10.98;;;5.15;;
55364;SDS011;41245;45.384;20.390;2022-09-09T09:42:17;6.25;;;5.00;;
55364;SDS011;41245;45.384;20.390;2022-09-09T09:44:44;11.00;;;5.00;;
55364;SDS011;41245;45.384;20.390;2022-09-09T09:47:13;9.02;;;5.32;;
55364;SDS011;41245;45.384;20.390;2022-09-09T09:49:56;12.98;;;5.47;;
55364;SDS011;41245;45.384;20.390;2022-09-09T09:52:33;8.65;;;5.00;;
55364;SDS011;41245;45.384;20.390;2022-09-09T09:55:03;13.63;;;5.32;;
55364;SDS011;41245;45.384;20.390;2022-09-09T09:57:32;13.05;;;5.47;;
55364;SDS011;41245;45.384;20.390;2022-09-09T10:02:43;20.00;;;6.07;;
55364;SDS011;41245;45.384;20.390;2022-09-09T10:07:45;14.55;;;6.80;;
55364;SDS011;41245;45.384;20.390;2022-09-09T10:10:20;16.00;;;8.23;;
55364;SDS011;41245;45.384;20.390;2022-09-09T10:12:57;12.52;;;6.07;;
55364;SDS011;41245;45.384;20.390;2022-09-09T10:23:46;13.50;;;5.93;;
55364;SDS011;41245;45.384;20.390;2022-09-09T10:29:26;9.00;;;5.15;;
55364;SDS011;41245;45.384;20.390;2022-09-09T10:32:10;8.90;;;5.65;;
55364;SDS011;41245;45.384;20.390;2022-09-09T10:40:23;10.38;;;5.78;;
55364;SDS011;41245;45.384;20.390;2022-09-09T10:43:00;14.35;;;7.45;;
55364;SDS011;41245;45.384;20.390;2022-09-09T10:51:21;11.98;;;5.00;;
55364;SDS011;41245;45.384;20.390;2022-09-09T10:53:53;7.00;;;5.13;;
55364;SDS011;41245;45.384;20.390;2022-09-09T10:56:26;10.18;;;5.80;;
55364;SDS011;41245;45.384;20.390;2022-09-09T10:58:59;9.55;;;5.70;;
55364;SDS011;41245;45.384;20.390;2022-09-09T11:01:36;14.98;;;6.15;;
55364;SDS011;41245;45.384;20.390;2022-09-09T11:04:22;9.30;;;5.43;;
55364;SDS011;41245;45.384;20.390;2022-09-09T11:06:54;21.20;;;7.70;;
55364;SDS011;41245;45.384;20.390;2022-09-09T11:09:25;7.60;;;5.37;;
55364;SDS011;41245;45.384;20.390;2022-09-09T11:11:56;6.43;;;5.60;;
55364;SDS011;41245;45.384;20.390;2022-09-09T11:17:14;12.98;;;5.80;;
55364;SDS011;41245;45.384;20.390;2022-09-09T11:19:43;10.35;;;5.95;;
55364;SDS011;41245;45.384;20.390;2022-09-09T11:25:34;10.57;;;6.07;;
55364;SDS011;41245;45.384;20.390;2022-09-09T11:33:12;13.53;;;5.57;;
55364;SDS011;41245;45.384;20.390;2022-09-09T11:38:58;9.25;;;5.38;;
55364;SDS011;41245;45.384;20.390;2022-09-09T11:41:53;11.73;;;5.30;;
55364;SDS011;41245;45.384;20.390;2022-09-09T11:44:23;11.77;;;5.85;;
55364;SDS011;41245;45.384;20.390;2022-09-09T11:46:54;8.05;;;5.57;;
55364;SDS011;41245;45.384;20.390;2022-09-09T11:52:23;5.97;;;5.20;;
55364;SDS011;41245;45.384;20.390;2022-09-09T11:54:50;9.77;;;5.78;;
55364;SDS011;41245;45.384;20.390;2022-09-09T11:57:27;9.27;;;5.70;;
55364;SDS011;41245;45.384;20.390;2022-09-09T11:59:59;11.32;;;5.40;;
55364;SDS011;41245;45.384;20.390;2022-09-09T12:02:26;6.65;;;4.97;;
55364;SDS011;41245;45.384;20.390;2022-09-09T12:07:52;14.55;;;6.60;;
55364;SDS011;41245;45.384;20.390;2022-09-09T12:15:55;8.45;;;5.07;;
55364;SDS011;41245;45.384;20.390;2022-09-09T12:18:31;9.43;;;5.30;;
55364;SDS011;41245;45.384;20.390;2022-09-09T12:26:22;10.10;;;5.13;;
55364;SDS011;41245;45.384;20.390;2022-09-09T12:37:04;12.77;;;5.47;;
55364;SDS011;41245;45.384;20.390;2022-09-09T12:39:43;13.65;;;6.07;;
55364;SDS011;41245;45.384;20.390;2022-09-09T12:42:16;11.48;;;6.43;;
55364;SDS011;41245;45.384;20.390;2022-09-09T12:44:53;11.70;;;5.55;;
55364;SDS011;41245;45.384;20.390;2022-09-09T12:47:30;8.93;;;5.75;;
55364;SDS011;41245;45.384;20.390;2022-09-09T12:50:10;15.07;;;5.63;;
55364;SDS011;41245;45.384;20.390;2022-09-09T12:52:41;11.10;;;4.75;;
55364;SDS011;41245;45.384;20.390;2022-09-09T12:55:16;11.10;;;5.05;;
55364;SDS011;41245;45.384;20.390;2022-09-09T12:57:46;11.57;;;4.80;;
55364;SDS011;41245;45.384;20.390;2022-09-09T13:02:49;9.52;;;6.28;;
55364;SDS011;41245;45.384;20.390;2022-09-09T13:07:52;8.63;;;5.90;;
55364;SDS011;41245;45.384;20.390;2022-09-09T13:10:28;8.55;;;5.70;;
55364;SDS011;41245;45.384;20.390;2022-09-09T13:12:56;8.05;;;5.72;;
55364;SDS011;41245;45.384;20.390;2022-09-09T13:15:23;13.90;;;5.47;;
55364;SDS011;41245;45.384;20.390;2022-09-09T13:17:56;6.30;;;5.30;;
55364;SDS011;41245;45.384;20.390;2022-09-09T13:20:23;10.68;;;6.45;;
55364;SDS011;41245;45.384;20.390;2022-09-09T13:22:50;16.42;;;6.82;;
55364;SDS011;41245;45.384;20.390;2022-09-09T13:25:24;12.40;;;7.45;;
55364;SDS011;41245;45.384;20.390;2022-09-09T13:28:04;10.02;;;6.20;;
55364;SDS011;41245;45.384;20.390;2022-09-09T13:30:43;15.80;;;6.85;;
55364;SDS011;41245;45.384;20.390;2022-09-09T13:33:35;17.27;;;7.95;;
55364;SDS011;41245;45.384;20.390;2022-09-09T13:36:03;10.65;;;5.60;;
55364;SDS011;41245;45.384;20.390;2022-09-09T13:41:24;16.52;;;5.85;;
55364;SDS011;41245;45.384;20.390;2022-09-09T13:43:55;11.27;;;6.35;;
55364;SDS011;41245;45.384;20.390;2022-09-09T13:48:56;10.70;;;5.78;;
55364;SDS011;41245;45.384;20.390;2022-09-09T13:51:32;10.35;;;6.25;;
55364;SDS011;41245;45.384;20.390;2022-09-09T13:54:01;13.30;;;6.95;;
55364;SDS011;41245;45.384;20.390;2022-09-09T13:59:00;15.70;;;5.50;;
55364;SDS011;41245;45.384;20.390;2022-09-09T14:01:27;14.07;;;5.75;;
55364;SDS011;41245;45.384;20.390;2022-09-09T14:03:53;10.57;;;5.63;;
55364;SDS011;41245;45.384;20.390;2022-09-09T14:06:19;9.68;;;5.88;;
55364;SDS011;41245;45.384;20.390;2022-09-09T14:08:47;14.95;;;6.47;;
55364;SDS011;41245;45.384;20.390;2022-09-09T14:11:16;12.90;;;5.85;;
55364;SDS011;41245;45.384;20.390;2022-09-09T14:13:42;13.38;;;5.97;;
55364;SDS011;41245;45.384;20.390;2022-09-09T14:16:08;23.90;;;7.05;;
55364;SDS011;41245;45.384;20.390;2022-09-09T14:18:34;14.85;;;6.30;;
55364;SDS011;41245;45.384;20.390;2022-09-09T14:21:00;9.82;;;5.95;;
55364;SDS011;41245;45.384;20.390;2022-09-09T14:23:28;14.23;;;5.53;;
55364;SDS011;41245;45.384;20.390;2022-09-09T14:25:54;11.20;;;5.03;;
55364;SDS011;41245;45.384;20.390;2022-09-09T14:28:21;9.43;;;6.70;;
55364;SDS011;41245;45.384;20.390;2022-09-09T14:30:47;18.38;;;7.47;;
55364;SDS011;41245;45.384;20.390;2022-09-09T14:33:13;15.32;;;5.82;;
55364;SDS011;41245;45.384;20.390;2022-09-09T14:35:40;9.52;;;4.90;;
55364;SDS011;41245;45.384;20.390;2022-09-09T14:38:07;14.00;;;5.85;;
55364;SDS011;41245;45.384;20.390;2022-09-09T14:40:34;10.35;;;5.85;;
55364;SDS011;41245;45.384;20.390;2022-09-09T14:43:01;10.88;;;5.72;;
55364;SDS011;41245;45.384;20.390;2022-09-09T14:45:27;13.00;;;5.57;;
55364;SDS011;41245;45.384;20.390;2022-09-09T14:47:53;12.80;;;5.35;;
55364;SDS011;41245;45.384;20.390;2022-09-09T14:50:19;18.08;;;5.80;;
55364;SDS011;41245;45.384;20.390;2022-09-09T14:52:45;13.23;;;6.07;;
55364;SDS011;41245;45.384;20.390;2022-09-09T14:55:11;9.52;;;5.20;;
55364;SDS011;41245;45.384;20.390;2022-09-09T14:57:37;10.05;;;5.15;;
55364;SDS011;41245;45.384;20.390;2022-09-09T15:00:05;12.98;;;5.40;;
55364;SDS011;41245;45.384;20.390;2022-09-09T15:02:33;17.77;;;6.50;;
55364;SDS011;41245;45.384;20.390;2022-09-09T15:04:59;7.68;;;6.28;;
55364;SDS011;41245;45.384;20.390;2022-09-09T15:07:26;10.15;;;6.28;;
55364;SDS011;41245;45.384;20.390;2022-09-09T15:09:53;17.50;;;6.63;;
55364;SDS011;41245;45.384;20.390;2022-09-09T15:12:20;9.95;;;5.85;;
55364;SDS011;41245;45.384;20.390;2022-09-09T15:14:46;12.57;;;6.25;;
55364;SDS011;41245;45.384;20.390;2022-09-09T15:17:12;9.25;;;5.03;;
55364;SDS011;41245;45.384;20.390;2022-09-09T15:19:38;12.73;;;6.28;;
55364;SDS011;41245;45.384;20.390;2022-09-09T15:22:04;15.27;;;6.82;;
55364;SDS011;41245;45.384;20.390;2022-09-09T15:24:31;17.98;;;6.93;;
55364;SDS011;41245;45.384;20.390;2022-09-09T15:26:57;11.90;;;5.63;;
55364;SDS011;41245;45.384;20.390;2022-09-09T15:29:24;17.30;;;6.88;;
55364;SDS011;41245;45.384;20.390;2022-09-09T15:31:50;11.50;;;6.25;;
55364;SDS011;41245;45.384;20.390;2022-09-09T15:34:15;12.23;;;5.95;;
55364;SDS011;41245;45.384;20.390;2022-09-09T15:36:42;22.48;;;8.98;;
55364;SDS011;41245;45.384;20.390;2022-09-09T15:39:10;14.65;;;7.70;;
55364;SDS011;41245;45.384;20.390;2022-09-09T15:41:37;19.90;;;7.47;;
55364;SDS011;41245;45.384;20.390;2022-09-09T15:44:04;15.07;;;6.85;;
55364;SDS011;41245;45.384;20.390;2022-09-09T15:51:44;11.02;;;6.38;;
55364;SDS011;41245;45.384;20.390;2022-09-09T15:54:15;10.57;;;6.10;;
55364;SDS011;41245;45.384;20.390;2022-09-09T15:56:43;19.77;;;7.82;;
55364;SDS011;41245;45.384;20.390;2022-09-09T15:59:10;18.58;;;6.53;;
55364;SDS011;41245;45.384;20.390;2022-09-09T16:01:36;14.40;;;5.88;;
55364;SDS011;41245;45.384;20.390;2022-09-09T16:04:02;20.20;;;5.68;;
55364;SDS011;41245;45.384;20.390;2022-09-09T16:06:29;16.90;;;6.00;;
55364;SDS011;41245;45.384;20.390;2022-09-09T16:08:55;14.63;;;6.03;;
55364;SDS011;41245;45.384;20.390;2022-09-09T16:11:24;15.32;;;7.43;;
55364;SDS011;41245;45.384;20.390;2022-09-09T16:13:52;13.87;;;7.17;;
55364;SDS011;41245;45.384;20.390;2022-09-09T16:16:19;13.25;;;6.43;;
55364;SDS011;41245;45.384;20.390;2022-09-09T16:18:47;13.60;;;6.20;;
55364;SDS011;41245;45.384;20.390;2022-09-09T16:21:20;17.25;;;5.47;;
55364;SDS011;41245;45.384;20.390;2022-09-09T16:23:49;8.77;;;5.13;;
55364;SDS011;41245;45.384;20.390;2022-09-09T16:26:16;23.55;;;6.65;;
55364;SDS011;41245;45.384;20.390;2022-09-09T16:28:43;24.17;;;7.13;;
55364;SDS011;41245;45.384;20.390;2022-09-09T16:31:12;20.58;;;6.78;;
55364;SDS011;41245;45.384;20.390;2022-09-09T16:33:41;12.48;;;4.93;;
55364;SDS011;41245;45.384;20.390;2022-09-09T16:36:08;15.75;;;5.30;;
55364;SDS011;41245;45.384;20.390;2022-09-09T16:38:35;14.43;;;5.95;;
55364;SDS011;41245;45.384;20.390;2022-09-09T16:41:02;11.40;;;5.78;;
55364;SDS011;41245;45.384;20.390;2022-09-09T16:43:30;12.43;;;5.50;;
55364;SDS011;41245;45.384;20.390;2022-09-09T16:45:57;12.95;;;5.78;;
55364;SDS011;41245;45.384;20.390;2022-09-09T16:48:26;16.33;;;5.85;;
55364;SDS011;41245;45.384;20.390;2022-09-09T16:51:04;19.70;;;6.88;;
55364;SDS011;41245;45.384;20.390;2022-09-09T16:53:32;16.00;;;6.72;;
55364;SDS011;41245;45.384;20.390;2022-09-09T16:55:58;27.27;;;7.22;;
55364;SDS011;41245;45.384;20.390;2022-09-09T16:58:29;21.67;;;7.00;;
55364;SDS011;41245;45.384;20.390;2022-09-09T17:00:58;12.18;;;6.32;;
55364;SDS011;41245;45.384;20.390;2022-09-09T17:03:25;16.80;;;7.03;;
55364;SDS011;41245;45.384;20.390;2022-09-09T17:05:51;17.88;;;7.13;;
55364;SDS011;41245;45.384;20.390;2022-09-09T17:08:16;13.80;;;7.00;;
55364;SDS011;41245;45.384;20.390;2022-09-09T17:10:42;17.65;;;8.40;;
55364;SDS011;41245;45.384;20.390;2022-09-09T17:13:08;17.38;;;8.05;;
55364;SDS011;41245;45.384;20.390;2022-09-09T17:15:39;20.20;;;8.00;;
55364;SDS011;41245;45.384;20.390;2022-09-09T17:18:08;16.23;;;7.47;;
55364;SDS011;41245;45.384;20.390;2022-09-09T17:20:41;22.48;;;9.80;;
55364;SDS011;41245;45.384;20.390;2022-09-09T17:23:08;36.15;;;9.07;;
55364;SDS011;41245;45.384;20.390;2022-09-09T17:25:35;25.50;;;9.98;;
55364;SDS011;41245;45.384;20.390;2022-09-09T17:28:01;26.85;;;10.15;;
55364;SDS011;41245;45.384;20.390;2022-09-09T17:30:34;31.17;;;10.63;;
55364;SDS011;41245;45.384;20.390;2022-09-09T17:33:01;21.50;;;9.75;;